Time;durP1;ratioP1;P1;durP2;ratioP2;P2;SDS_P1;SDS_P2;PMS_P1;PMS_P2;Temp;Humidity;BMP_temperature;BMP_pressure;BME280_temperature;BME280_humidity;BME280_pressure;Samples;Min_cycle;Max_cycle;Signal;HPM_P1;HPM_P2
2022/07/15 00:00:10;;;;;;;3.7;3.3;;;;;;;22.09;61.11035;939.6469;;;;
2022/07/15 00:02:39;;;;;;;4.2;3.5;;;;;;;22.05;61.33887;939.7316;;;;
2022/07/15 00:05:10;;;;;;;3.5;3.2;;;;;;;22.08;61.42578;939.7137;;;;
2022/07/15 00:07:35;;;;;;;4.2;3.2;;;;;;;22.06;61.15332;939.7053;;;;
2022/07/15 00:10:18;;;;;;;3.5;3.1;;;;;;;22.07;60.70801;939.7498;;;;
2022/07/15 00:12:29;;;;;;;4.2;3.1;;;;;;;22.04;60.71582;939.6663;;;;
2022/07/15 00:15:00;;;;;;;4;3.3;;;;;;;21.98;60.54492;939.7009;;;;
2022/07/15 00:17:25;;;;;;;4.2;3.1;;;;;;;21.95;60.54004;939.7109;;;;
2022/07/15 00:19:53;;;;;;;6.6;3.4;;;;;;;21.88;60.58984;939.6027;;;;
2022/07/15 00:22:18;;;;;;;4.4;3.2;;;;;;;21.84;60.64258;939.5634;;;;
2022/07/15 00:24:46;;;;;;;5.1;3.3;;;;;;;21.82;59.99512;939.5347;;;;
2022/07/15 00:27:11;;;;;;;3.3;2.5;;;;;;;21.77;60.05859;939.5923;;;;
2022/07/15 00:29:36;;;;;;;4.7;3;;;;;;;21.7;60.20215;939.5684;;;;
2022/07/15 00:32:01;;;;;;;5.8;3.2;;;;;;;21.76;60.02148;939.5967;;;;
2022/07/15 00:34:30;;;;;;;4.2;3.2;;;;;;;21.65;60.2998;939.5652;;;;
2022/07/15 00:36:55;;;;;;;5.2;3.1;;;;;;;21.71;60.02734;939.517;;;;
2022/07/15 00:39:22;;;;;;;9;3.7;;;;;;;21.73;59.80762;939.4606;;;;
2022/07/15 00:41:47;;;;;;;3.2;2.9;;;;;;;21.73;60.05371;939.4847;;;;
2022/07/15 00:44:14;;;;;;;4.4;3.3;;;;;;;21.78;59.67383;939.4597;;;;
2022/07/15 00:46:39;;;;;;;5.5;3.4;;;;;;;21.84;59.82227;939.4847;;;;
2022/07/15 00:49:06;;;;;;;3.4;3.1;;;;;;;21.84;59.41211;939.4411;;;;
2022/07/15 00:51:31;;;;;;;7.6;3.7;;;;;;;21.91;59.23438;939.4525;;;;
2022/07/15 00:53:59;;;;;;;5.9;3.8;;;;;;;21.87;59.33398;939.5901;;;;
2022/07/15 00:56:25;;;;;;;4.8;3.6;;;;;;;21.79;59.48828;939.5551;;;;
2022/07/15 00:58:52;;;;;;;6;3.3;;;;;;;21.63;59.81738;939.5051;;;;
2022/07/15 01:01:17;;;;;;;4.2;2.9;;;;;;;21.71;60.00391;939.6322;;;;
2022/07/15 01:03:44;;;;;;;3.5;3.2;;;;;;;21.73;59.34961;939.5783;;;;
2022/07/15 01:06:09;;;;;;;5.3;3;;;;;;;21.66;60.00879;939.5391;;;;
2022/07/15 01:08:37;;;;;;;6.2;3.2;;;;;;;21.54;59.98047;939.4736;;;;
2022/07/15 01:11:02;;;;;;;4.1;3.2;;;;;;;21.49;59.90332;939.4727;;;;
2022/07/15 01:13:29;;;;;;;3.9;3.1;;;;;;;21.35;60.09668;939.4433;;;;
2022/07/15 01:15:58;;;;;;;4.1;2.9;;;;;;;21.39;59.50391;939.426;;;;
2022/07/15 01:18:27;;;;;;;4.5;3;;;;;;;21.23;59.7168;939.4442;;;;
2022/07/15 01:20:52;;;;;;;5.8;3.2;;;;;;;21.24;59.68359;939.4758;;;;
2022/07/15 01:23:19;;;;;;;3.9;3.5;;;;;;;21.14;60.23047;939.4556;;;;
2022/07/15 01:25:44;;;;;;;5;3.5;;;;;;;21.09;60.82129;939.5078;;;;
2022/07/15 01:28:10;;;;;;;4.6;3.2;;;;;;;21.14;60.36035;939.4117;;;;
2022/07/15 01:30:35;;;;;;;4.7;3.2;;;;;;;21.08;60.69043;939.4022;;;;
2022/07/15 01:33:01;;;;;;;5.5;3.4;;;;;;;21.14;60.79199;939.4395;;;;
2022/07/15 01:35:28;;;;;;;4.5;3.3;;;;;;;21.18;60.69238;939.4258;;;;
2022/07/15 01:37:55;;;;;;;3.4;3;;;;;;;21.24;59.61328;939.4344;;;;
2022/07/15 01:40:20;;;;;;;4.6;3.2;;;;;;;21.15;59.9873;939.4584;;;;
2022/07/15 01:42:47;;;;;;;5.5;3.2;;;;;;;21.11;60.02734;939.449;;;;
2022/07/15 01:45:17;;;;;;;3.3;3;;;;;;;21.08;59.77832;939.4451;;;;
2022/07/15 01:47:47;;;;;;;3.8;2.7;;;;;;;21.16;58.66504;939.4525;;;;
2022/07/15 01:50:22;;;;;;;4.2;3;;;;;;;21.21;57.94727;939.4292;;;;
2022/07/15 01:52:51;;;;;;;5.5;3.2;;;;;;;21.25;58.05957;939.473;;;;
2022/07/15 01:55:15;;;;;;;3.8;2.7;;;;;;;21.14;57.9502;939.5598;;;;
2022/07/15 01:57:45;;;;;;;3.3;2.9;;;;;;;21.11;58.40137;939.62;;;;
2022/07/15 02:00:17;;;;;;;3.3;2.8;;;;;;;21.1;58.78809;939.6768;;;;
2022/07/15 02:02:41;;;;;;;5.5;3.2;;;;;;;21.04;59.87891;939.6552;;;;
2022/07/15 02:05:15;;;;;;;3.8;2.9;;;;;;;20.78;60.21777;939.6497;;;;
2022/07/15 02:07:46;;;;;;;7.1;3.2;;;;;;;20.76;61.94336;939.7062;;;;
2022/07/15 02:10:19;;;;;;;4.7;3.4;;;;;;;20.66;65.05078;939.7129;;;;
2022/07/15 02:12:44;;;;;;;4.6;2.9;;;;;;;20.54;65.33691;939.7466;;;;
2022/07/15 02:15:09;;;;;;;3.5;3;;;;;;;20.37;65.73047;939.7885;;;;
2022/07/15 02:17:37;;;;;;;4.8;3.4;;;;;;;20.29;65.63672;939.6652;;;;
2022/07/15 02:20:02;;;;;;;4.4;3.4;;;;;;;20.23;65.69922;939.6223;;;;
2022/07/15 02:22:30;;;;;;;3.4;3.1;;;;;;;20.24;65.50195;939.6181;;;;
2022/07/15 02:24:55;;;;;;;4.8;3.4;;;;;;;20.22;66;939.6417;;;;
2022/07/15 02:27:24;;;;;;;3.2;2.7;;;;;;;20.2;66.47754;939.693;;;;
2022/07/15 02:29:48;;;;;;;5.2;3.1;;;;;;;20.21;66.77051;939.642;;;;
2022/07/15 02:32:14;;;;;;;4.1;3;;;;;;;20.09;66.27246;939.6384;;;;
2022/07/15 02:34:40;;;;;;;3.4;3.1;;;;;;;20;66.44629;939.6711;;;;
2022/07/15 02:37:07;;;;;;;4;3.5;;;;;;;19.94;66.28516;939.65;;;;
2022/07/15 02:39:32;;;;;;;4.8;3.3;;;;;;;20.04;65.33105;939.6664;;;;
2022/07/15 02:41:59;;;;;;;4.2;3.3;;;;;;;19.94;65.09473;939.6443;;;;
2022/07/15 02:44:24;;;;;;;5.4;2.9;;;;;;;19.97;63.93359;939.6217;;;;
2022/07/15 02:46:53;;;;;;;4.9;2.9;;;;;;;19.99;63.69141;939.6462;;;;
2022/07/15 02:49:23;;;;;;;5;3.3;;;;;;;20.08;63.90234;939.5338;;;;
2022/07/15 02:51:48;;;;;;;3.6;2.9;;;;;;;20.05;63.53809;939.6895;;;;
2022/07/15 02:54:15;;;;;;;3.3;2.5;;;;;;;20.09;62.5498;939.683;;;;
2022/07/15 02:56:40;;;;;;;5.5;3.1;;;;;;;20.05;62.95508;939.6911;;;;
2022/07/15 02:59:09;;;;;;;5.1;3;;;;;;;20.08;62.88867;939.7195;;;;
2022/07/15 03:01:33;;;;;;;3.3;2.7;;;;;;;20.17;62.75;939.697;;;;
2022/07/15 03:04:02;;;;;;;3.6;2.8;;;;;;;20.25;62.86523;939.7511;;;;
2022/07/15 03:06:27;;;;;;;4.6;3.1;;;;;;;20.09;62.67871;939.8713;;;;
2022/07/15 03:08:53;;;;;;;3.5;2.9;;;;;;;20.12;61.99414;939.8811;;;;
2022/07/15 03:11:18;;;;;;;3.2;2.9;;;;;;;20.12;62.46191;939.9004;;;;
2022/07/15 03:13:44;;;;;;;4;3.3;;;;;;;20.01;63.32031;939.8624;;;;
2022/07/15 03:16:10;;;;;;;4.9;3.1;;;;;;;19.98;63.45605;939.8453;;;;
2022/07/15 03:18:37;;;;;;;3.3;3;;;;;;;19.96;63.90918;939.8992;;;;
2022/07/15 03:21:02;;;;;;;4.6;3.4;;;;;;;19.84;63.87891;939.8521;;;;
2022/07/15 03:23:29;;;;;;;4.1;3.5;;;;;;;19.61;65.80469;939.8875;;;;
2022/07/15 03:25:54;;;;;;;4.3;3.2;;;;;;;19.57;66.06738;939.9504;;;;
2022/07/15 03:28:21;;;;;;;4.7;3.5;;;;;;;19.65;66.23145;940.1689;;;;
2022/07/15 03:30:47;;;;;;;4.3;3.4;;;;;;;19.6;67.15527;940.1664;;;;
2022/07/15 03:33:12;;;;;;;5.2;3.9;;;;;;;19.54;68.14844;940.2219;;;;
2022/07/15 03:35:38;;;;;;;4.2;3.5;;;;;;;19.4;69.74707;940.2291;;;;
2022/07/15 03:38:06;;;;;;;3.7;3.3;;;;;;;19.41;70.21582;940.2474;;;;
2022/07/15 03:40:32;;;;;;;6.3;4.1;;;;;;;19.39;70.56152;940.3254;;;;
2022/07/15 03:42:59;;;;;;;4.7;3.5;;;;;;;19.37;70.9082;940.325;;;;
2022/07/15 03:45:24;;;;;;;5.2;4;;;;;;;19.31;71.53809;940.3401;;;;
2022/07/15 03:47:51;;;;;;;5.9;4.2;;;;;;;19.23;72.11914;940.3394;;;;
2022/07/15 03:50:17;;;;;;;7.6;4.5;;;;;;;19.13;72.75488;940.4177;;;;
2022/07/15 03:52:45;;;;;;;5.7;4.1;;;;;;;18.99;73.7793;940.4291;;;;
2022/07/15 03:55:11;;;;;;;7.5;4.6;;;;;;;18.94;74.22559;940.439;;;;
2022/07/15 03:57:39;;;;;;;4.6;3.8;;;;;;;18.72;75.70117;940.3016;;;;
2022/07/15 04:00:04;;;;;;;5.6;4;;;;;;;18.8;75.5293;940.5953;;;;
2022/07/15 04:02:33;;;;;;;5.9;4.4;;;;;;;18.7;76.75684;940.7352;;;;
2022/07/15 04:05:03;;;;;;;6.5;4.6;;;;;;;18.39;78.35254;940.4025;;;;
2022/07/15 04:07:27;;;;;;;5.9;4.8;;;;;;;18.44;79.0127;940.5173;;;;
2022/07/15 04:09:54;;;;;;;6.3;4.4;;;;;;;18.48;78.91504;940.5449;;;;
2022/07/15 04:12:20;;;;;;;7.6;4.9;;;;;;;18.57;78.4541;940.5086;;;;
2022/07/15 04:14:46;;;;;;;7;4.8;;;;;;;18.67;78.35547;940.4066;;;;
2022/07/15 04:17:13;;;;;;;5.1;4.6;;;;;;;18.66;78.50488;940.3906;;;;
2022/07/15 04:19:39;;;;;;;6.1;4.7;;;;;;;18.58;78.85156;940.4293;;;;
2022/07/15 04:22:05;;;;;;;5.9;4.2;;;;;;;18.6;79.28613;940.3734;;;;
2022/07/15 04:24:31;;;;;;;5.2;4.6;;;;;;;18.79;77.86426;940.2729;;;;
2022/07/15 04:26:56;;;;;;;6.1;4.7;;;;;;;18.75;78.25195;940.2996;;;;
2022/07/15 04:29:25;;;;;;;5.6;4.7;;;;;;;18.62;78.19629;940.2733;;;;
2022/07/15 04:31:54;;;;;;;7.8;4.8;;;;;;;18.59;79.08398;940.2978;;;;
2022/07/15 04:34:20;;;;;;;6.3;4.8;;;;;;;18.63;78.36133;940.3452;;;;
2022/07/15 04:36:50;;;;;;;5.7;4.7;;;;;;;18.69;78.09082;940.3981;;;;
2022/07/15 04:39:19;;;;;;;5.8;4.6;;;;;;;18.82;76.78906;940.2758;;;;
2022/07/15 04:41:51;;;;;;;6.5;4.5;;;;;;;18.83;77.3252;940.4192;;;;
2022/07/15 04:44:21;;;;;;;7;4.9;;;;;;;18.82;77.4502;940.4998;;;;
2022/07/15 04:46:46;;;;;;;5.1;4.4;;;;;;;18.84;77.3623;940.5109;;;;
2022/07/15 04:51:41;;;;;;;6;4.7;;;;;;;18.84;77.38574;940.5247;;;;
2022/07/15 04:54:07;;;;;;;6.2;5;;;;;;;18.83;77.68652;940.4967;;;;
2022/07/15 04:56:35;;;;;;;5.7;4.8;;;;;;;18.47;78.81055;940.4902;;;;
2022/07/15 04:59:00;;;;;;;7.5;4.8;;;;;;;18.56;79.31348;940.5225;;;;
2022/07/15 05:01:29;;;;;;;6.7;5.5;;;;;;;18.54;79.51953;940.5333;;;;
2022/07/15 05:03:59;;;;;;;7.1;5.1;;;;;;;18.57;79.92969;940.4902;;;;
2022/07/15 05:06:23;;;;;;;6.9;5.2;;;;;;;18.56;79.94141;940.4394;;;;
2022/07/15 05:08:49;;;;;;;6.6;4.7;;;;;;;18.58;80.33984;940.5204;;;;
2022/07/15 05:11:14;;;;;;;7.3;4.8;;;;;;;18.51;79.50293;940.533;;;;
2022/07/15 05:13:42;;;;;;;4.9;4.4;;;;;;;18.62;78.7998;940.5739;;;;
2022/07/15 05:16:10;;;;;;;5.9;4.7;;;;;;;18.57;80.04785;940.7537;;;;
2022/07/15 05:18:37;;;;;;;7.6;5.1;;;;;;;18.51;80.29395;940.6701;;;;
2022/07/15 05:21:02;;;;;;;6.1;5.2;;;;;;;18.52;80.22559;940.6934;;;;
2022/07/15 05:23:29;;;;;;;7.3;5.4;;;;;;;18.59;79.29492;940.7374;;;;
2022/07/15 05:25:54;;;;;;;8.5;5.3;;;;;;;18.64;78.97754;940.7701;;;;
2022/07/15 05:28:22;;;;;;;6;5;;;;;;;18.63;79.41895;940.7203;;;;
2022/07/15 05:30:47;;;;;;;6.6;5.1;;;;;;;18.58;78.99121;940.6987;;;;
2022/07/15 05:33:14;;;;;;;6.9;5.1;;;;;;;18.49;79.90527;940.6503;;;;
2022/07/15 05:35:39;;;;;;;6.6;5.7;;;;;;;18.59;80.03906;940.6227;;;;
2022/07/15 05:38:06;;;;;;;7.6;5.9;;;;;;;18.59;79.46973;940.634;;;;
2022/07/15 05:40:31;;;;;;;5.7;4.7;;;;;;;18.74;78.76367;940.6489;;;;
2022/07/15 05:43:02;;;;;;;7;5;;;;;;;18.88;79.33496;940.6967;;;;
2022/07/15 05:45:31;;;;;;;6.7;4.9;;;;;;;18.85;78.15527;940.7375;;;;
2022/07/15 05:47:56;;;;;;;7.5;4.9;;;;;;;18.72;78.52637;940.6292;;;;
2022/07/15 05:50:23;;;;;;;7.3;5.3;;;;;;;18.62;79.4873;940.6467;;;;
2022/07/15 05:52:48;;;;;;;6.1;4.9;;;;;;;18.72;79.35449;940.7849;;;;
2022/07/15 05:55:17;;;;;;;7.7;4.4;;;;;;;18.61;80.34473;940.8603;;;;
2022/07/15 05:57:46;;;;;;;5.4;4.8;;;;;;;18.6;80.3916;940.8153;;;;
2022/07/15 06:00:11;;;;;;;5.4;4.9;;;;;;;18.75;79.29883;940.7787;;;;
2022/07/15 06:02:41;;;;;;;7.3;4.9;;;;;;;18.82;78.94141;940.8131;;;;
2022/07/15 06:05:10;;;;;;;6.4;5.4;;;;;;;18.87;77.86719;940.7767;;;;
2022/07/15 06:07:35;;;;;;;7.3;5.7;;;;;;;18.84;77.69922;940.7628;;;;
2022/07/15 06:10:04;;;;;;;6.5;5.1;;;;;;;18.88;77.95215;940.7991;;;;
2022/07/15 06:12:29;;;;;;;6.4;4.7;;;;;;;19.14;77.60059;940.8834;;;;
2022/07/15 06:14:55;;;;;;;4.7;4.2;;;;;;;19.88;74.47656;940.8347;;;;
2022/07/15 06:17:20;;;;;;;6.1;4.7;;;;;;;20.22;73.2373;940.8499;;;;
2022/07/15 06:19:46;;;;;;;5;4.5;;;;;;;20.28;72.1748;940.8801;;;;
2022/07/15 06:22:11;;;;;;;7.5;4.8;;;;;;;20.19;72.48535;940.8781;;;;
2022/07/15 06:24:40;;;;;;;7.8;4.3;;;;;;;20.17;71.92285;940.8809;;;;
2022/07/15 06:27:05;;;;;;;6.8;4.7;;;;;;;20.14;72.69824;940.9188;;;;
2022/07/15 06:29:33;;;;;;;5.9;4.7;;;;;;;20.17;71.95703;940.9431;;;;
2022/07/15 06:31:57;;;;;;;7.9;4.4;;;;;;;20.04;71.19043;940.9048;;;;
2022/07/15 06:34:25;;;;;;;6;4.1;;;;;;;20.09;70.99902;940.9249;;;;
2022/07/15 06:36:50;;;;;;;4.9;4.1;;;;;;;20.18;71.40039;940.853;;;;
2022/07/15 06:39:20;;;;;;;5.7;4.2;;;;;;;20.44;70.93848;940.86;;;;
2022/07/15 06:41:44;;;;;;;5.3;4.1;;;;;;;20.62;70.5;940.918;;;;
2022/07/15 06:44:13;;;;;;;5.6;4.4;;;;;;;20.7;68.33789;940.8588;;;;
2022/07/15 06:46:42;;;;;;;5.5;3.9;;;;;;;20.64;69.24121;940.9194;;;;
2022/07/15 06:49:08;;;;;;;5.3;4;;;;;;;20.54;68.06934;940.8099;;;;
2022/07/15 06:51:38;;;;;;;5.2;4.1;;;;;;;20.6;68.54492;940.9088;;;;
2022/07/15 06:54:07;;;;;;;5;4.4;;;;;;;20.43;69.37109;940.8895;;;;
2022/07/15 06:56:31;;;;;;;6.2;4.5;;;;;;;20.47;69.27441;940.8105;;;;
2022/07/15 06:58:58;;;;;;;7;4.8;;;;;;;20.7;70.1377;940.8352;;;;
2022/07/15 07:01:25;;;;;;;6.4;4.1;;;;;;;20.85;67.73047;940.8228;;;;
2022/07/15 07:03:50;;;;;;;6.3;4.2;;;;;;;21.02;67.82715;940.8061;;;;
2022/07/15 07:06:18;;;;;;;5.6;4.5;;;;;;;21.25;67.34863;940.8364;;;;
2022/07/15 07:08:46;;;;;;;5.8;3.7;;;;;;;21.62;66.70215;940.7913;;;;
2022/07/15 07:11:08;;;;;;;5.1;3.8;;;;;;;21.99;62.77246;940.8084;;;;
2022/07/15 07:13:36;;;;;;;4.1;3.6;;;;;;;22.19;62.24805;940.8354;;;;
2022/07/15 07:16:10;;;;;;;5.1;3.7;;;;;;;22.23;61.82129;940.8247;;;;
2022/07/15 07:18:37;;;;;;;5;3.9;;;;;;;22.19;63.49121;940.8078;;;;
2022/07/15 07:21:03;;;;;;;5;3.4;;;;;;;22.29;64.46875;940.8179;;;;
2022/07/15 07:23:30;;;;;;;4.6;3.9;;;;;;;22.03;65.09863;940.8002;;;;
2022/07/15 07:25:54;;;;;;;5.8;3.7;;;;;;;22.22;63.33203;940.7581;;;;
2022/07/15 07:28:21;;;;;;;4.8;3.4;;;;;;;22.42;64.11328;940.8192;;;;
2022/07/15 07:30:49;;;;;;;4.2;3.8;;;;;;;22.48;62.64258;940.7374;;;;
2022/07/15 07:33:15;;;;;;;5.3;3.7;;;;;;;22.74;61.72656;940.8134;;;;
2022/07/15 07:35:42;;;;;;;6.6;4.8;;;;;;;22.73;64.625;940.7839;;;;
2022/07/15 07:38:05;;;;;;;4.9;4.5;;;;;;;23.09;64.86719;940.7592;;;;
2022/07/15 07:40:37;;;;;;;6.5;5.1;;;;;;;22.51;65.56738;940.7769;;;;
2022/07/15 07:43:08;;;;;;;8.9;4.4;;;;;;;23.31;65.00488;940.8201;;;;
2022/07/15 07:45:33;;;;;;;6.4;4.3;;;;;;;23.73;63.95898;940.8764;;;;
2022/07/15 07:48:06;;;;;;;7;4.9;;;;;;;24.45;59.80859;940.8792;;;;
2022/07/15 07:50:31;;;;;;;6.7;5.1;;;;;;;24.23;61.18262;940.8823;;;;
2022/07/15 07:53:01;;;;;;;6.5;4.5;;;;;;;25.05;57.51758;940.8882;;;;
2022/07/15 07:55:31;;;;;;;4.9;3.5;;;;;;;25.52;54.81348;940.8636;;;;
2022/07/15 07:58:01;;;;;;;4.2;3.4;;;;;;;26.14;52.15625;940.8416;;;;
2022/07/15 08:00:28;;;;;;;4.1;3.4;;;;;;;25.59;54.88086;940.8019;;;;
2022/07/15 08:03:03;;;;;;;3.9;3.5;;;;;;;25.57;54.42969;940.8027;;;;
2022/07/15 08:05:19;;;;;;;3.9;3.5;;;;;;;25.74;53.24512;940.8129;;;;
2022/07/15 08:07:44;;;;;;;6.7;3.8;;;;;;;24.84;55.07324;940.8207;;;;
2022/07/15 08:10:12;;;;;;;4.5;3.9;;;;;;;24.17;60.55859;940.8466;;;;
2022/07/15 08:12:38;;;;;;;4.5;3.6;;;;;;;24.88;57.93066;940.8013;;;;
2022/07/15 08:15:04;;;;;;;4.1;3.5;;;;;;;24.93;57.43066;940.8357;;;;
2022/07/15 08:17:30;;;;;;;6.7;3.7;;;;;;;24.73;57.85352;940.8446;;;;
2022/07/15 08:19:56;;;;;;;4.7;3.5;;;;;;;25;56.73145;940.7932;;;;
2022/07/15 08:22:21;;;;;;;5;4;;;;;;;24.36;59.77246;940.7965;;;;
2022/07/15 08:24:49;;;;;;;6.2;4.1;;;;;;;23.86;61.22363;940.7427;;;;
2022/07/15 08:27:13;;;;;;;4.5;3.8;;;;;;;23.96;60.48438;940.7637;;;;
2022/07/15 08:29:40;;;;;;;4.1;3.7;;;;;;;23.92;60.38477;940.7761;;;;
2022/07/15 08:32:05;;;;;;;5.2;4.2;;;;;;;23.84;60.76172;940.7483;;;;
2022/07/15 08:34:31;;;;;;;5.6;3.8;;;;;;;23.62;60.99219;940.7597;;;;
2022/07/15 08:36:57;;;;;;;4.6;4.2;;;;;;;22.99;63.35938;940.6877;;;;
2022/07/15 08:39:27;;;;;;;5.5;4.7;;;;;;;22.66;65.19141;940.7561;;;;
2022/07/15 08:41:52;;;;;;;6;4.2;;;;;;;23.03;62.64941;940.6713;;;;
2022/07/15 08:44:19;;;;;;;6.9;4.6;;;;;;;22.63;65.32813;940.692;;;;
2022/07/15 08:46:44;;;;;;;5.6;4.3;;;;;;;22.31;65.56152;940.6833;;;;
2022/07/15 08:49:12;;;;;;;5.1;4.6;;;;;;;22.16;67.08691;940.6749;;;;
2022/07/15 08:51:38;;;;;;;6.8;4.6;;;;;;;22.27;67.03418;940.726;;;;
2022/07/15 08:54:07;;;;;;;5.1;4.6;;;;;;;21.91;67.09668;940.6836;;;;
2022/07/15 08:56:32;;;;;;;5.6;5;;;;;;;21.75;68.26758;940.6808;;;;
2022/07/15 08:58:57;;;;;;;7.1;5.1;;;;;;;21.44;69.22559;940.6532;;;;
2022/07/15 09:01:22;;;;;;;5.5;4.7;;;;;;;21.96;68.93164;940.5847;;;;
2022/07/15 09:03:53;;;;;;;5.3;4.8;;;;;;;22.24;70.26563;940.6086;;;;
2022/07/15 09:06:24;;;;;;;5.3;4.8;;;;;;;22.82;65.89453;940.6284;;;;
2022/07/15 09:08:50;;;;;;;4.9;4.1;;;;;;;23.11;64.12988;940.5709;;;;
2022/07/15 09:11:15;;;;;;;6.5;4.7;;;;;;;23.58;65.34863;940.598;;;;
2022/07/15 09:13:43;;;;;;;7.1;5.1;;;;;;;23.5;64.59766;940.6152;;;;
2022/07/15 09:16:10;;;;;;;3.9;3.6;;;;;;;25.09;60.66113;940.55;;;;
2022/07/15 09:18:35;;;;;;;4.4;4;;;;;;;25.37;56.88477;940.5192;;;;
2022/07/15 09:20:59;;;;;;;6.3;4.5;;;;;;;24.66;59.38965;940.529;;;;
2022/07/15 09:23:29;;;;;;;4.6;3.9;;;;;;;24.46;64.85352;940.5485;;;;
2022/07/15 09:25:50;;;;;;;5.8;3.7;;;;;;;25.76;59.44043;940.5345;;;;
2022/07/15 09:28:17;;;;;;;5.7;3.9;;;;;;;26.77;54.9541;940.5485;;;;
2022/07/15 09:38:03;;;;;;;5.1;4.1;;;;;;;25.6;56.19434;940.5109;;;;
2022/07/15 09:40:28;;;;;;;5.5;4.5;;;;;;;25.22;57.84668;940.4995;;;;
2022/07/15 09:43:03;;;;;;;5.9;4.4;;;;;;;25.38;56.67383;940.475;;;;
2022/07/15 09:45:29;;;;;;;7.2;4.7;;;;;;;25.14;59.92383;940.4427;;;;
2022/07/15 09:47:54;;;;;;;6.1;4.7;;;;;;;25.72;56.7998;940.4733;;;;
2022/07/15 09:50:22;;;;;;;6.4;4.7;;;;;;;25.59;56.98438;940.5023;;;;
2022/07/15 09:52:53;;;;;;;5;4.3;;;;;;;26.02;56.54199;940.5049;;;;
2022/07/15 09:55:21;;;;;;;7;4.8;;;;;;;25.78;56.54785;940.473;;;;
2022/07/15 09:57:46;;;;;;;6.4;4.5;;;;;;;25.8;54.56348;940.4487;;;;
2022/07/15 10:00:16;;;;;;;4.7;4.3;;;;;;;25.76;55.94141;940.4057;;;;
2022/07/15 10:02:46;;;;;;;5.8;4.1;;;;;;;26.18;57.18945;940.428;;;;
2022/07/15 10:05:12;;;;;;;6.9;4.5;;;;;;;26.61;54.42676;940.4455;;;;
2022/07/15 10:07:37;;;;;;;5.2;4.7;;;;;;;26.45;56.52441;940.4636;;;;
2022/07/15 10:10:26;;;;;;;5.7;4.4;;;;;;;26.44;54.21484;940.5317;;;;
2022/07/15 10:12:49;;;;;;;5.4;4.5;;;;;;;26.67;54.59863;940.5322;;;;
2022/07/15 10:15:21;;;;;;;6.1;4.6;;;;;;;26.65;54.34863;940.519;;;;
2022/07/15 10:17:47;;;;;;;5.7;4.9;;;;;;;26.6;55.79883;940.478;;;;
2022/07/15 10:20:11;;;;;;;6.6;4.7;;;;;;;26.64;54.57129;940.4299;;;;
2022/07/15 10:22:36;;;;;;;7.2;4.8;;;;;;;26.37;55.99609;940.5452;;;;
2022/07/15 10:25:04;;;;;;;13.1;7;;;;;;;26.59;55.9375;940.5016;;;;
2022/07/15 10:27:30;;;;;;;7.4;4.5;;;;;;;26.96;54.82324;940.5033;;;;
2022/07/15 10:29:55;;;;;;;8.5;5.3;;;;;;;26.7;53.66797;940.5142;;;;
2022/07/15 10:32:20;;;;;;;7.5;5.4;;;;;;;26.32;55.85938;940.4362;;;;
2022/07/15 10:34:45;;;;;;;7.9;5.6;;;;;;;26.39;56.02051;940.4503;;;;
2022/07/15 10:37:11;;;;;;;6.7;4.6;;;;;;;26.53;55.30469;940.4764;;;;
2022/07/15 10:39:35;;;;;;;6.5;5.1;;;;;;;26.36;55.8623;940.4781;;;;
2022/07/15 10:42:06;;;;;;;7.2;5;;;;;;;26.5;53.74902;940.4447;;;;
2022/07/15 10:44:31;;;;;;;6;4.7;;;;;;;26.13;54.34375;940.4314;;;;
2022/07/15 10:46:58;;;;;;;6.6;4.7;;;;;;;26.04;55.3623;940.3848;;;;
2022/07/15 10:49:23;;;;;;;10.3;5.4;;;;;;;26.58;55.41699;940.332;;;;
2022/07/15 10:51:49;;;;;;;8.4;4.8;;;;;;;26.94;53.30469;940.406;;;;
2022/07/15 10:54:13;;;;;;;5.1;4.3;;;;;;;27.13;53.63672;940.3575;;;;
2022/07/15 10:56:39;;;;;;;5.3;4.2;;;;;;;27.61;52.36328;940.3674;;;;
2022/07/15 10:59:04;;;;;;;7.6;5.1;;;;;;;27.53;53.56543;940.3887;;;;
2022/07/15 11:01:29;;;;;;;5.3;4.7;;;;;;;28.18;52.57227;940.3269;;;;
2022/07/15 11:03:54;;;;;;;6.9;4.6;;;;;;;28.16;50.51465;940.3304;;;;
2022/07/15 11:06:19;;;;;;;6.6;4.7;;;;;;;28.38;51.5625;940.3734;;;;
2022/07/15 11:08:44;;;;;;;6.1;4.5;;;;;;;28.17;51.73926;940.3822;;;;
2022/07/15 11:11:09;;;;;;;6.2;4.4;;;;;;;28.35;50.0957;940.3653;;;;
2022/07/15 11:13:40;;;;;;;5;3.9;;;;;;;28.14;50.60742;940.3322;;;;
2022/07/15 11:16:08;;;;;;;7.1;4.1;;;;;;;28.12;50.77051;940.2887;;;;
2022/07/15 11:18:36;;;;;;;7.1;4.7;;;;;;;28.62;49.3291;940.247;;;;
2022/07/15 11:21:01;;;;;;;5.8;4.8;;;;;;;27.96;52.51074;940.2241;;;;
2022/07/15 11:23:28;;;;;;;5.2;4.3;;;;;;;27.96;50.83594;940.2297;;;;
2022/07/15 11:25:53;;;;;;;6;4.2;;;;;;;28.06;49.95703;940.2483;;;;
2022/07/15 11:28:21;;;;;;;6.6;4.4;;;;;;;28.24;49.19238;940.2294;;;;
2022/07/15 11:30:47;;;;;;;6.4;4.2;;;;;;;28.04;51.87793;940.2153;;;;
2022/07/15 11:33:14;;;;;;;4.8;4;;;;;;;28.13;47.45703;940.1332;;;;
2022/07/15 11:35:38;;;;;;;4.6;3.9;;;;;;;28.32;49.15234;940.1992;;;;
2022/07/15 11:38:07;;;;;;;5.7;3.7;;;;;;;28.15;48.61328;940.1646;;;;
2022/07/15 11:45:27;;;;;;;5.5;4.1;;;;;;;27.47;50.9707;940.0552;;;;
2022/07/15 11:47:58;;;;;;;8.2;4.5;;;;;;;27.04;53.55371;940.0401;;;;
2022/07/15 11:50:26;;;;;;;6.5;4.1;;;;;;;27.02;54.27441;940.0278;;;;
2022/07/15 11:52:53;;;;;;;5.4;3.7;;;;;;;27.18;51.51953;940.0206;;;;
2022/07/15 11:55:22;;;;;;;5.2;4.5;;;;;;;27.35;52.75977;939.9894;;;;
2022/07/15 11:57:54;;;;;;;4.8;4;;;;;;;26.94;54.65527;939.928;;;;
2022/07/15 12:00:18;;;;;;;4.4;4;;;;;;;27.07;55.58496;939.8962;;;;
2022/07/15 12:02:42;;;;;;;5.7;4.3;;;;;;;27.32;51.29785;939.8945;;;;
2022/07/15 12:05:15;;;;;;;4.7;4;;;;;;;27.69;50.36621;939.877;;;;
2022/07/15 12:07:44;;;;;;;5.2;4.1;;;;;;;27.68;50.37598;939.8973;;;;
2022/07/15 12:10:10;;;;;;;4.4;3.6;;;;;;;27.79;49.54688;939.8976;;;;
2022/07/15 12:12:37;;;;;;;7.8;3.7;;;;;;;28.15;48.86133;939.8201;;;;
2022/07/15 12:15:02;;;;;;;5.5;4;;;;;;;27.96;49.32715;939.8134;;;;
2022/07/15 12:17:32;;;;;;;7.3;4.2;;;;;;;27.39;52.50391;939.8292;;;;
2022/07/15 12:20:03;;;;;;;5.9;4.1;;;;;;;27.47;50.06934;939.8228;;;;
2022/07/15 12:22:25;;;;;;;4.4;4;;;;;;;27.55;50.29102;939.6817;;;;
2022/07/15 12:24:52;;;;;;;5.2;4;;;;;;;26.79;54.66016;939.6355;;;;
2022/07/15 12:27:20;;;;;;;5.2;4.5;;;;;;;26.69;55.39453;939.603;;;;
2022/07/15 12:29:45;;;;;;;4.6;4;;;;;;;26.88;51.45996;939.6369;;;;
2022/07/15 12:32:10;;;;;;;5.9;4.4;;;;;;;25.72;55.25195;939.695;;;;
2022/07/15 12:34:35;;;;;;;4.9;4.3;;;;;;;25.42;55.0127;939.6489;;;;
2022/07/15 12:37:04;;;;;;;5.2;3.9;;;;;;;25.52;54.51758;939.6755;;;;
2022/07/15 12:39:29;;;;;;;5.5;4.3;;;;;;;25.2;57.42969;939.7115;;;;
2022/07/15 12:41:55;;;;;;;4.4;4;;;;;;;25.34;56.16113;939.6312;;;;
2022/07/15 12:44:26;;;;;;;5.7;4.2;;;;;;;25.16;59.12402;939.6359;;;;
2022/07/15 12:46:51;;;;;;;7.7;4.6;;;;;;;24.79;59.43066;939.6404;;;;
2022/07/15 12:49:16;;;;;;;6.5;4;;;;;;;24.83;59.89453;939.416;;;;
2022/07/15 12:51:41;;;;;;;4.5;4;;;;;;;25.18;58.84375;939.617;;;;
2022/07/15 12:54:06;;;;;;;5.3;4.1;;;;;;;25.55;61.12695;939.6249;;;;
2022/07/15 12:56:31;;;;;;;5.6;4;;;;;;;25.96;55.38867;939.5772;;;;
2022/07/15 12:58:56;;;;;;;5;4;;;;;;;25.74;57.40527;939.6076;;;;
2022/07/15 13:01:30;;;;;;;6.8;4.1;;;;;;;25.83;57.46289;939.6298;;;;
2022/07/15 13:04:00;;;;;;;6.9;4.7;;;;;;;25.95;56.49707;939.6847;;;;
2022/07/15 13:06:34;;;;;;;6;3.9;;;;;;;25.98;54.78711;939.5785;;;;
2022/07/15 13:08:51;;;;;;;6.7;4.6;;;;;;;25.53;60.37891;939.6006;;;;
2022/07/15 13:11:20;;;;;;;6.5;4.7;;;;;;;25.49;58.625;939.6538;;;;
2022/07/15 13:13:44;;;;;;;5.6;4.2;;;;;;;25.64;58.53809;939.6498;;;;
2022/07/15 13:16:13;;;;;;;5.4;4.1;;;;;;;26.04;56.31934;939.5892;;;;
2022/07/15 13:18:38;;;;;;;5.4;3.9;;;;;;;26.32;55.01855;939.6777;;;;
2022/07/15 13:21:06;;;;;;;5.1;4;;;;;;;26.46;53.89844;939.5323;;;;
2022/07/15 13:23:31;;;;;;;6.3;4.4;;;;;;;26.53;54.78223;939.5591;;;;
2022/07/15 13:26:00;;;;;;;6.2;3.8;;;;;;;26.6;53.79688;939.6408;;;;
2022/07/15 13:28:25;;;;;;;5.7;4.3;;;;;;;26.63;52.22461;939.632;;;;
2022/07/15 13:30:51;;;;;;;4.8;3.9;;;;;;;26.73;53.33789;939.5922;;;;
2022/07/15 13:33:16;;;;;;;6.1;4.2;;;;;;;26.48;54.87207;939.6077;;;;
2022/07/15 13:35:43;;;;;;;6.7;4.4;;;;;;;26.71;52.94531;939.5621;;;;
2022/07/15 13:38:08;;;;;;;5.7;4;;;;;;;26.58;53.29688;939.6033;;;;
2022/07/15 13:40:37;;;;;;;5.7;4.2;;;;;;;26.38;53.99512;939.6002;;;;
2022/07/15 13:43:03;;;;;;;7;4.1;;;;;;;26.19;54.31543;939.5549;;;;
2022/07/15 13:45:30;;;;;;;4.8;4;;;;;;;26.42;52.02441;939.5351;;;;
2022/07/15 13:47:55;;;;;;;5.5;3.9;;;;;;;26.68;50.97559;939.6019;;;;
2022/07/15 13:52:46;;;;;;;5.2;4.2;;;;;;;26.69;53.02539;939.6862;;;;
2022/07/15 13:55:18;;;;;;;4.3;3.7;;;;;;;26.85;50.94824;939.6408;;;;
2022/07/15 13:57:47;;;;;;;6.6;3.9;;;;;;;26.77;49.93164;939.6682;;;;
2022/07/15 14:00:13;;;;;;;5.9;4.6;;;;;;;26.57;50.79785;939.7181;;;;
2022/07/15 14:02:41;;;;;;;6.4;4.6;;;;;;;26.45;51.30566;939.8027;;;;
2022/07/15 14:05:07;;;;;;;5.9;4.3;;;;;;;26.46;52.31152;939.7172;;;;
2022/07/15 14:07:32;;;;;;;4.3;3.8;;;;;;;26.26;53.27148;939.7231;;;;
2022/07/15 14:09:58;;;;;;;5.8;4.4;;;;;;;25.97;53.66211;939.67;;;;
2022/07/15 14:12:25;;;;;;;6.2;4.7;;;;;;;25.17;56.84766;939.7291;;;;
2022/07/15 14:14:50;;;;;;;5.1;4.5;;;;;;;25.38;56.29688;939.7344;;;;
2022/07/15 14:17:20;;;;;;;4.9;4.4;;;;;;;25.44;54.70801;939.706;;;;
2022/07/15 14:19:45;;;;;;;6;4.1;;;;;;;25.53;54.55469;939.7224;;;;
2022/07/15 14:22:11;;;;;;;8.3;4.4;;;;;;;25.67;54.67773;939.731;;;;
2022/07/15 14:25:30;;;;;;;5.5;4.4;;;;;;;25.66;53.55469;939.7197;;;;
2022/07/15 14:27:58;;;;;;;4.8;3.6;;;;;;;25.85;53.01074;939.726;;;;
2022/07/15 14:30:23;;;;;;;6.2;4.2;;;;;;;25.81;52.85156;939.7905;;;;
2022/07/15 14:32:50;;;;;;;4.8;4.1;;;;;;;25.9;52.71973;939.7946;;;;
2022/07/15 14:35:15;;;;;;;5;3.7;;;;;;;26.01;53.1709;939.7935;;;;
2022/07/15 14:37:45;;;;;;;7.5;4.1;;;;;;;26.11;53.02832;939.6993;;;;
2022/07/15 14:40:18;;;;;;;4.3;3.9;;;;;;;25.92;53.64453;939.7578;;;;